DNMM/LOS METAR and TAF weather

Enter ICAO airport designator
Station Type Date Time Source
DNMM METAR 2021/10/20 06:00 UTC NOAA

DNMM 200600Z 32003KT 7000 FEW008 24/24 Q1013 TEMPO 5000 BR


Station Type Date Time Source
DNMM Decoded METAR 2021/10/20 06:00 UTC NOAA

Lagos / Ikeja, Nigeria (DNMM) 06-35N 003-20E 38M
Oct 20, 2021 - 02:00 AM EDT / 2021.10.20 0600 UTC
Wind: from the NW (320 degrees) at 3 MPH (3 KT):0
Visibility: 4 mile(s):0
Sky conditions: mostly clear
Temperature: 75 F (24 C)
Dew Point: 75 F (24 C)
Relative Humidity: 100%
Pressure (altimeter): 29.91 in. Hg (1013 hPa)
ob: DNMM 200600Z 32003KT 7000 FEW008 24/24 Q1013 TEMPO 5000 BR
cycle: 6

Station Type Date Time Source
DNMM TAF 2021/10/20 06:57 UTC NOAA

TAF TAF DNMM 200500Z 2006/2112 VRB02KT 8000 FEW009
TEMPO 2006/2008 5000 BR
BECMG 2008/2010 22010KT BKN013 FEW020CB
TEMPO 2011/2017 5000 -TSRA BKN010 FEW019CB
BECMG 2018/2020 VRB02KT SCT011

Example: see airport list